createdAt,value
2023-03-31T00:00:52.840Z,100899.72
2023-03-31T00:03:24.415Z,100895.50
2023-03-31T00:05:59.374Z,100885.13
2023-03-31T00:08:30.759Z,100883.78
2023-03-31T00:11:01.841Z,100884.69
2023-03-31T00:13:30.485Z,100881.06
2023-03-31T00:16:09.895Z,100875.91
2023-03-31T00:18:37.940Z,100870.16
2023-03-31T00:21:25.600Z,100873.94
2023-03-31T00:24:02.018Z,100872.00
2023-03-31T00:26:29.820Z,100870.84
2023-03-31T00:28:57.644Z,100868.88
2023-03-31T00:31:25.515Z,100859.84
2023-03-31T00:33:54.598Z,100860.50
2023-03-31T00:36:27.536Z,100842.88
2023-03-31T00:38:56.785Z,100842.41
2023-03-31T00:41:23.835Z,100843.41
2023-03-31T00:44:10.318Z,100843.19
2023-03-31T00:46:44.332Z,100838.22
2023-03-31T00:49:23.809Z,100835.19
2023-03-31T00:51:54.107Z,100834.22
2023-03-31T00:54:23.679Z,100825.28
2023-03-31T00:56:55.645Z,100819.03
2023-03-31T00:59:27.673Z,100818.69
2023-03-31T01:01:59.415Z,100814.00
2023-03-31T01:04:27.332Z,100813.53
2023-03-31T01:07:03.784Z,100814.47
2023-03-31T01:09:35.198Z,100804.66
2023-03-31T01:12:07.412Z,100806.50
2023-03-31T01:14:35.677Z,100804.75
2023-03-31T01:17:03.207Z,100801.97
2023-03-31T01:19:46.413Z,100794.69
2023-03-31T01:22:28.747Z,100798.69
2023-03-31T01:25:07.575Z,100794.41
2023-03-31T01:27:49.128Z,100785.00
2023-03-31T01:30:19.615Z,100787.53
2023-03-31T01:33:03.774Z,100779.63
2023-03-31T01:35:33.637Z,100777.41
2023-03-31T01:38:37.489Z,100774.75
2023-03-31T01:41:32.071Z,100772.28
2023-03-31T01:44:20.821Z,100771.34
2023-03-31T01:47:14.579Z,100762.66
2023-03-31T01:49:52.844Z,100757.50
2023-03-31T01:52:25.033Z,100753.94
2023-03-31T01:55:07.125Z,100761.59
2023-03-31T01:57:56.514Z,100757.06
2023-03-31T02:00:33.644Z,100751.38
2023-03-31T02:03:17.260Z,100749.34
2023-03-31T02:06:01.825Z,100745.03
2023-03-31T02:08:38.602Z,100728.16
2023-03-31T02:11:05.951Z,100734.31
2023-03-31T02:13:35.149Z,100727.31
2023-03-31T02:16:09.887Z,100718.06
2023-03-31T02:18:41.859Z,100712.00
2023-03-31T02:21:14.738Z,100704.16
2023-03-31T02:23:45.168Z,100707.53
2023-03-31T02:26:16.660Z,100704.50
2023-03-31T02:28:44.285Z,100700.72
2023-03-31T02:31:26.374Z,100698.81
2023-03-31T02:33:53.719Z,100698.56
2023-03-31T02:36:21.854Z,100697.19
2023-03-31T02:39:05.857Z,100694.56
2023-03-31T02:41:33.483Z,100689.53
2023-03-31T02:44:01.311Z,100695.94
2023-03-31T02:46:30.297Z,100691.22
2023-03-31T02:49:03.436Z,100693.66
2023-03-31T02:52:03.899Z,100689.03
2023-03-31T02:55:06.537Z,100688.53
2023-03-31T02:57:44.408Z,100682.53
2023-03-31T03:00:36.469Z,100676.97
2023-03-31T03:03:21.430Z,100674.88
2023-03-31T03:05:59.078Z,100673.66
2023-03-31T03:08:59.430Z,100666.84
2023-03-31T03:11:40.446Z,100663.09
2023-03-31T03:14:35.473Z,100663.47
2023-03-31T03:17:23.915Z,100659.25
2023-03-31T03:19:54.093Z,100651.50
2023-03-31T03:22:21.820Z,100649.28
2023-03-31T03:24:49.070Z,100647.44
2023-03-31T03:27:16.169Z,100655.06
2023-03-31T03:29:44.246Z,100647.31
2023-03-31T03:32:11.553Z,100645.22
2023-03-31T03:34:38.830Z,100650.47
2023-03-31T03:37:06.101Z,100644.19
2023-03-31T03:39:33.180Z,100644.19
2023-03-31T03:42:00.299Z,100654.88
2023-03-31T03:44:27.437Z,100657.19
2023-03-31T03:46:54.584Z,100655.81
2023-03-31T03:49:21.631Z,100652.81
2023-03-31T03:51:48.839Z,100647.47
2023-03-31T03:54:15.902Z,100635.03
2023-03-31T03:56:43.000Z,100640.13
2023-03-31T03:59:11.776Z,100644.97
2023-03-31T04:01:39.107Z,100640.78
2023-03-31T04:04:06.283Z,100641.53
2023-03-31T04:06:33.364Z,100635.53
2023-03-31T04:09:00.533Z,100633.50
2023-03-31T04:11:28.340Z,100622.72
2023-03-31T04:13:55.471Z,100621.47
2023-03-31T04:16:23.598Z,100624.56
2023-03-31T04:18:53.035Z,100629.53
2023-03-31T04:21:23.268Z,100630.44
2023-03-31T04:24:07.247Z,100625.97
2023-03-31T04:26:44.662Z,100617.94
2023-03-31T04:29:13.506Z,100609.97
2023-03-31T04:31:43.202Z,100600.59
2023-03-31T04:34:15.388Z,100617.06
2023-03-31T04:36:47.913Z,100614.34
2023-03-31T04:39:17.506Z,100606.44
2023-03-31T04:41:45.581Z,100602.53
2023-03-31T04:44:12.760Z,100608.09
2023-03-31T04:46:39.829Z,100603.78
2023-03-31T04:49:06.898Z,100611.69
2023-03-31T04:51:33.957Z,100613.22
2023-03-31T04:54:01.099Z,100604.75
2023-03-31T04:56:28.236Z,100592.19
2023-03-31T04:58:55.375Z,100606.69
2023-03-31T05:01:22.542Z,100603.59
2023-03-31T05:03:49.789Z,100586.91
2023-03-31T05:06:17.863Z,100582.63
2023-03-31T05:08:45.461Z,100580.19
2023-03-31T05:11:12.720Z,100576.31
2023-03-31T05:13:40.207Z,100567.56
2023-03-31T05:16:14.561Z,100560.09
2023-03-31T05:18:42.299Z,100557.63
2023-03-31T05:21:17.773Z,100549.72
2023-03-31T05:23:44.927Z,100548.91
2023-03-31T05:26:12.628Z,100549.78
2023-03-31T05:28:40.505Z,100549.81
2023-03-31T05:31:09.109Z,100548.09
2023-03-31T05:33:40.477Z,100538.47
2023-03-31T05:36:13.239Z,100534.00
2023-03-31T05:38:41.278Z,100548.06
2023-03-31T05:41:09.669Z,100543.72
2023-03-31T05:43:39.158Z,100545.44
2023-03-31T05:46:07.354Z,100538.28
2023-03-31T05:48:34.797Z,100542.38
2023-03-31T05:51:02.043Z,100543.97
2023-03-31T05:53:29.932Z,100537.06
2023-03-31T05:56:02.212Z,100531.78
2023-03-31T05:58:30.293Z,100531.78
2023-03-31T06:01:03.174Z,100533.56
2023-03-31T06:03:30.382Z,100540.97
2023-03-31T06:05:57.628Z,100545.38
2023-03-31T06:08:25.054Z,100543.41
2023-03-31T06:10:52.381Z,100540.91
2023-03-31T06:13:19.654Z,100546.25
2023-03-31T06:16:01.014Z,100546.28
2023-03-31T06:18:29.992Z,100528.81
2023-03-31T06:20:57.865Z,100532.31
2023-03-31T06:23:26.223Z,100530.59
2023-03-31T06:25:53.997Z,100533.22
2023-03-31T06:28:22.027Z,100524.34
2023-03-31T06:30:49.110Z,100527.09
2023-03-31T06:33:17.668Z,100528.84
2023-03-31T06:35:44.786Z,100523.50
2023-03-31T06:38:11.968Z,100521.84
2023-03-31T06:40:39.048Z,100517.44
2023-03-31T06:43:06.224Z,100517.44
2023-03-31T06:45:33.289Z,100521.78
2023-03-31T06:48:00.536Z,100515.59
2023-03-31T06:50:27.641Z,100513.63
2023-03-31T06:52:55.535Z,100512.59
2023-03-31T06:55:22.624Z,100516.31
2023-03-31T06:57:49.811Z,100509.94
2023-03-31T07:00:17.618Z,100520.41
2023-03-31T07:02:44.874Z,100516.28
2023-03-31T07:05:12.207Z,100525.31
2023-03-31T07:07:39.352Z,100530.50
2023-03-31T07:10:06.879Z,100519.16
2023-03-31T07:12:34.430Z,100521.75
2023-03-31T07:15:01.657Z,100518.91
2023-03-31T07:17:29.115Z,100517.81
2023-03-31T07:19:56.167Z,100510.88
2023-03-31T07:22:23.219Z,100506.75
2023-03-31T07:24:50.354Z,100507.31
2023-03-31T07:27:17.457Z,100504.59
2023-03-31T07:29:44.574Z,100508.13
2023-03-31T07:32:11.877Z,100497.91
2023-03-31T07:34:40.725Z,100502.31
2023-03-31T07:37:08.020Z,100503.94
2023-03-31T07:39:37.006Z,100501.38
2023-03-31T07:42:04.391Z,100499.66
2023-03-31T07:44:34.176Z,100507.50
2023-03-31T07:47:06.213Z,100509.84
2023-03-31T07:49:35.022Z,100507.22
2023-03-31T07:52:02.978Z,100502.28
2023-03-31T07:54:30.386Z,100504.66
2023-03-31T07:57:01.770Z,100500.03
2023-03-31T07:59:30.517Z,100494.97
2023-03-31T08:01:57.697Z,100495.78
2023-03-31T08:04:25.208Z,100499.22
2023-03-31T08:06:52.605Z,100490.22
2023-03-31T08:09:20.682Z,100493.97
2023-03-31T08:11:48.180Z,100498.53
2023-03-31T08:14:15.517Z,100490.38
2023-03-31T08:16:43.030Z,100497.41
2023-03-31T08:19:10.500Z,100486.22
2023-03-31T08:21:37.569Z,100488.59
2023-03-31T08:24:06.146Z,100491.81
2023-03-31T08:26:35.167Z,100485.84
2023-03-31T08:29:04.253Z,100490.31
2023-03-31T08:31:31.328Z,100488.31
2023-03-31T08:33:58.544Z,100483.66
2023-03-31T08:36:27.267Z,100486.22
2023-03-31T08:38:54.574Z,100478.63
2023-03-31T08:41:34.600Z,100484.59
2023-03-31T08:44:08.183Z,100477.50
2023-03-31T08:46:35.936Z,100466.25
2023-03-31T08:49:04.919Z,100469.88
2023-03-31T08:51:42.387Z,100464.91
2023-03-31T08:54:20.885Z,100468.41
2023-03-31T08:56:50.990Z,100470.19
2023-03-31T08:59:29.463Z,100461.41
2023-03-31T09:02:12.648Z,100464.94
2023-03-31T09:05:07.026Z,100457.03
2023-03-31T09:08:00.166Z,100447.44
2023-03-31T09:10:37.881Z,100450.03
2023-03-31T09:13:13.736Z,100440.44
2023-03-31T09:15:46.532Z,100438.47
2023-03-31T09:18:31.765Z,100439.19
2023-03-31T09:21:05.303Z,100437.09
2023-03-31T09:24:06.800Z,100429.47
2023-03-31T09:26:53.530Z,100428.78
2023-03-31T09:29:51.702Z,100429.16
2023-03-31T09:32:30.482Z,100427.44
2023-03-31T09:35:14.564Z,100414.22
2023-03-31T09:37:41.984Z,100418.41
2023-03-31T09:40:17.709Z,100422.03
2023-03-31T09:42:47.845Z,100415.16
2023-03-31T09:45:17.506Z,100405.34
2023-03-31T09:47:47.653Z,100410.59
2023-03-31T09:50:16.782Z,100410.06
2023-03-31T09:52:49.964Z,100406.47
2023-03-31T09:55:39.930Z,100407.16
2023-03-31T09:58:12.635Z,100403.19
2023-03-31T10:00:43.700Z,100400.41
2023-03-31T10:03:14.179Z,100397.47
2023-03-31T10:05:55.879Z,100405.94
2023-03-31T10:08:57.818Z,100392.47
2023-03-31T10:11:27.422Z,100395.53
2023-03-31T10:14:28.292Z,100391.66
2023-03-31T10:16:57.538Z,100387.69
2023-03-31T10:19:30.273Z,100383.09
2023-03-31T10:22:15.509Z,100370.91
2023-03-31T10:24:46.332Z,100372.63
2023-03-31T10:27:33.734Z,100363.53
2023-03-31T10:30:05.294Z,100357.88
2023-03-31T10:32:34.863Z,100357.13
2023-03-31T10:35:15.143Z,100345.84
2023-03-31T10:37:42.460Z,100341.78
2023-03-31T10:40:27.032Z,100337.75
2023-03-31T10:43:09.229Z,100336.78
2023-03-31T10:45:47.755Z,100334.06
2023-03-31T10:48:39.979Z,100324.63
2023-03-31T10:51:16.996Z,100311.09
2023-03-31T10:53:49.856Z,100311.06
2023-03-31T10:56:38.769Z,100303.97
2023-03-31T10:59:36.550Z,100291.72
2023-03-31T11:02:39.653Z,100282.59
2023-03-31T11:05:28.433Z,100279.38
2023-03-31T11:08:20.853Z,100276.59
2023-03-31T11:10:53.784Z,100276.84
2023-03-31T11:13:34.063Z,100271.19
2023-03-31T11:16:12.162Z,100271.00
2023-03-31T11:19:02.251Z,100272.50
2023-03-31T11:21:46.133Z,100268.97
2023-03-31T11:24:53.480Z,100268.47
2023-03-31T11:27:58.134Z,100254.09
2023-03-31T11:30:33.330Z,100252.41
2023-03-31T11:33:06.239Z,100257.88
2023-03-31T11:35:45.603Z,100263.53
2023-03-31T11:38:45.035Z,100255.19
2023-03-31T11:41:18.256Z,100250.94
2023-03-31T11:43:52.960Z,100248.00
2023-03-31T11:46:33.456Z,100244.22
2023-03-31T11:49:24.391Z,100242.72
2023-03-31T11:51:56.018Z,100228.66
2023-03-31T11:54:33.547Z,100224.03
2023-03-31T11:57:10.075Z,100222.78
2023-03-31T11:59:39.538Z,100218.09
2023-03-31T12:02:15.611Z,100207.09
2023-03-31T12:04:56.589Z,100213.00
2023-03-31T12:07:55.612Z,100198.88
2023-03-31T12:10:32.410Z,100201.78
2023-03-31T12:13:08.786Z,100192.00
2023-03-31T12:15:46.584Z,100192.38
2023-03-31T12:18:21.935Z,100195.03
2023-03-31T12:20:59.501Z,100192.72
2023-03-31T12:23:34.184Z,100189.75
2023-03-31T12:26:12.982Z,100182.97
2023-03-31T12:28:41.534Z,100183.16
2023-03-31T12:31:14.630Z,100181.06
2023-03-31T12:33:49.304Z,100182.94
2023-03-31T12:36:39.451Z,100185.25
2023-03-31T12:40:16.976Z,100175.38
2023-03-31T12:42:53.561Z,100171.63
2023-03-31T12:45:32.445Z,100164.34
2023-03-31T12:48:26.599Z,100156.69
2023-03-31T12:51:29.277Z,100165.09
2023-03-31T12:54:22.972Z,100162.44
2023-03-31T12:57:02.088Z,100148.56
2023-03-31T12:59:37.766Z,100146.06
2023-03-31T13:02:17.147Z,100142.44
2023-03-31T13:04:44.628Z,100143.50
2023-03-31T13:07:36.788Z,100151.69
2023-03-31T13:10:19.041Z,100131.88
2023-03-31T13:13:15.240Z,100131.00
2023-03-31T13:15:55.112Z,100131.44
2023-03-31T13:18:23.312Z,100129.06
2023-03-31T13:21:00.204Z,100123.25
2023-03-31T13:23:28.998Z,100122.41
2023-03-31T13:25:57.769Z,100124.41
2023-03-31T13:28:42.556Z,100121.19
2023-03-31T13:31:14.002Z,100112.72
2023-03-31T13:33:58.204Z,100105.44
2023-03-31T13:36:34.682Z,100110.13
2023-03-31T13:39:14.132Z,100107.69
2023-03-31T13:42:18.065Z,100100.75
2023-03-31T13:44:45.272Z,100100.84
2023-03-31T13:47:40.197Z,100101.81
2023-03-31T13:50:44.493Z,100101.69
2023-03-31T13:53:50.979Z,100092.06
2023-03-31T13:56:32.025Z,100085.72
2023-03-31T13:59:24.909Z,100081.38
2023-03-31T14:02:24.269Z,100082.50
2023-03-31T14:05:01.252Z,100079.94
2023-03-31T14:08:12.423Z,100076.34
2023-03-31T14:10:42.314Z,100079.81
2023-03-31T14:13:24.469Z,100074.63
2023-03-31T14:15:55.913Z,100076.78
2023-03-31T14:18:26.505Z,100071.56
2023-03-31T14:20:57.723Z,100067.59
2023-03-31T14:23:34.801Z,100070.09
2023-03-31T14:26:15.487Z,100071.34
2023-03-31T14:28:49.307Z,100068.38
2023-03-31T14:31:35.726Z,100066.63
2023-03-31T14:34:24.908Z,100067.38
2023-03-31T14:37:00.614Z,100064.19
2023-03-31T14:39:32.583Z,100058.09
2023-03-31T14:42:15.571Z,100064.88
2023-03-31T14:44:47.095Z,100063.63
2023-03-31T14:47:19.348Z,100060.25
2023-03-31T14:49:46.793Z,100067.53
2023-03-31T14:52:26.075Z,100061.72
2023-03-31T14:54:53.613Z,100064.00
2023-03-31T14:57:28.894Z,100053.59
2023-03-31T14:59:56.333Z,100064.81
2023-03-31T15:02:42.565Z,100064.34
2023-03-31T15:05:21.539Z,100060.97
2023-03-31T15:07:49.602Z,100060.94
2023-03-31T15:10:21.885Z,100063.47
2023-03-31T15:12:51.232Z,100057.28
2023-03-31T15:15:21.296Z,100051.50
2023-03-31T15:17:48.805Z,100056.69
2023-03-31T15:20:37.041Z,100049.75
2023-03-31T15:23:21.377Z,100046.44
2023-03-31T15:25:48.807Z,100055.88
2023-03-31T15:28:17.963Z,100052.53
2023-03-31T15:30:48.969Z,100045.63
2023-03-31T15:33:22.968Z,100045.09
2023-03-31T15:35:50.298Z,100041.25
2023-03-31T15:38:18.853Z,100041.56
2023-03-31T15:40:52.180Z,100034.81
2023-03-31T15:43:29.286Z,100035.16
2023-03-31T15:46:01.428Z,100023.25
2023-03-31T15:48:54.878Z,100028.22
2023-03-31T15:51:30.093Z,100029.72
2023-03-31T15:53:57.332Z,100027.69
2023-03-31T15:56:32.270Z,100027.56
2023-03-31T15:59:04.628Z,100027.03
2023-03-31T16:01:51.182Z,100024.28
2023-03-31T16:04:18.677Z,100022.19
2023-03-31T16:06:55.157Z,100032.16
2023-03-31T16:09:42.511Z,100029.56
2023-03-31T16:12:21.346Z,100018.28
2023-03-31T16:14:58.324Z,100033.00
2023-03-31T16:17:39.119Z,100032.13
2023-03-31T16:20:20.597Z,100030.94
2023-03-31T16:22:51.792Z,100027.09
2023-03-31T16:25:22.884Z,100027.91
2023-03-31T16:27:55.576Z,100029.78
2023-03-31T16:30:42.989Z,100037.41
2023-03-31T16:33:19.247Z,100042.38
2023-03-31T16:35:56.056Z,100038.59
2023-03-31T16:38:25.122Z,100038.28
2023-03-31T16:40:57.149Z,100034.06
2023-03-31T16:43:27.368Z,100032.50
2023-03-31T16:45:56.839Z,100031.25
2023-03-31T16:48:26.270Z,100028.59
2023-03-31T16:50:58.565Z,100030.16
2023-03-31T16:53:31.469Z,100030.38
2023-03-31T16:55:58.795Z,100025.09
2023-03-31T16:58:29.185Z,100039.31
2023-03-31T17:00:58.051Z,100040.28
2023-03-31T17:03:25.759Z,100032.06
2023-03-31T17:05:56.831Z,100036.06
2023-03-31T17:08:30.261Z,100026.28
2023-03-31T17:11:02.677Z,100032.13
2023-03-31T17:13:32.631Z,100033.16
2023-03-31T17:16:13.191Z,100034.44
2023-03-31T17:18:44.932Z,100046.56
2023-03-31T17:21:15.058Z,100040.78
2023-03-31T17:23:42.761Z,100043.34
2023-03-31T17:26:12.806Z,100035.59
2023-03-31T17:28:41.114Z,100040.28
2023-03-31T17:31:12.498Z,100047.22
2023-03-31T17:33:40.368Z,100050.22
2023-03-31T17:36:08.537Z,100058.75
2023-03-31T17:38:35.754Z,100056.66
2023-03-31T17:41:04.775Z,100058.19
2023-03-31T17:43:32.691Z,100058.84
2023-03-31T17:46:11.779Z,100063.00
2023-03-31T17:48:40.329Z,100058.53
2023-03-31T17:51:10.378Z,100060.09
2023-03-31T17:53:37.593Z,100066.53
2023-03-31T17:56:05.232Z,100061.81
2023-03-31T17:58:33.077Z,100069.00
2023-03-31T18:01:00.678Z,100068.31
2023-03-31T18:03:31.594Z,100067.31
2023-03-31T18:06:06.767Z,100069.56
2023-03-31T18:08:34.905Z,100064.03
2023-03-31T18:11:05.105Z,100069.63
2023-03-31T18:13:34.964Z,100064.44
2023-03-31T18:16:03.833Z,100078.84
2023-03-31T18:18:31.034Z,100074.38
2023-03-31T18:20:58.233Z,100072.59
2023-03-31T18:23:25.368Z,100075.06
2023-03-31T18:25:52.822Z,100077.72
2023-03-31T18:28:20.949Z,100067.28
2023-03-31T18:30:48.160Z,100067.97
2023-03-31T18:33:15.751Z,100060.66
2023-03-31T18:35:43.029Z,100061.72
2023-03-31T18:38:10.471Z,100058.03
2023-03-31T18:40:37.911Z,100062.97
2023-03-31T18:43:05.988Z,100060.53
2023-03-31T18:45:33.235Z,100065.53
2023-03-31T18:48:01.009Z,100066.63
2023-03-31T18:50:30.646Z,100067.88
2023-03-31T18:52:58.055Z,100073.22
2023-03-31T18:55:26.083Z,100070.28
2023-03-31T18:57:53.697Z,100065.63
2023-03-31T19:00:21.056Z,100075.84
2023-03-31T19:02:48.537Z,100076.19
2023-03-31T19:05:15.990Z,100067.34
2023-03-31T19:07:43.172Z,100065.47
2023-03-31T19:10:10.680Z,100067.00
2023-03-31T19:12:37.859Z,100070.81
2023-03-31T19:15:05.795Z,100061.34
2023-03-31T19:17:33.018Z,100062.69
2023-03-31T19:20:00.219Z,100054.84
2023-03-31T19:22:27.966Z,100055.13
2023-03-31T19:24:55.013Z,100054.16
2023-03-31T19:27:23.207Z,100062.56
2023-03-31T19:29:51.137Z,100061.63
2023-03-31T19:32:18.637Z,100068.91
2023-03-31T19:34:46.762Z,100068.91
2023-03-31T19:37:14.922Z,100067.50
2023-03-31T19:39:42.117Z,100059.31
2023-03-31T19:42:09.250Z,100057.22
2023-03-31T19:44:36.377Z,100056.16
2023-03-31T19:47:03.581Z,100058.91
2023-03-31T19:49:31.748Z,100060.41
2023-03-31T19:51:58.966Z,100059.84
2023-03-31T19:54:26.261Z,100059.06
2023-03-31T19:56:53.497Z,100056.34
2023-03-31T19:59:20.863Z,100059.03
2023-03-31T20:01:48.316Z,100065.59
2023-03-31T20:04:18.312Z,100059.25
2023-03-31T20:06:47.606Z,100058.47
2023-03-31T20:09:15.493Z,100052.75
2023-03-31T20:11:43.540Z,100046.69
2023-03-31T20:14:11.402Z,100049.22
2023-03-31T20:16:38.824Z,100059.50
2023-03-31T20:19:06.817Z,100059.44
2023-03-31T20:21:37.763Z,100050.88
2023-03-31T20:24:06.114Z,100052.63
2023-03-31T20:26:34.805Z,100055.50
2023-03-31T20:29:04.100Z,100052.84
2023-03-31T20:31:36.610Z,100054.66
2023-03-31T20:34:06.021Z,100048.47
2023-03-31T20:36:33.637Z,100053.03
2023-03-31T20:39:04.417Z,100053.88
2023-03-31T20:41:32.323Z,100067.91
2023-03-31T20:44:00.096Z,100068.88
2023-03-31T20:46:27.666Z,100058.53
2023-03-31T20:48:57.260Z,100056.81
2023-03-31T20:51:33.087Z,100050.59
2023-03-31T20:54:02.010Z,100050.00
2023-03-31T20:56:31.870Z,100043.28
2023-03-31T20:58:59.940Z,100046.50
2023-03-31T21:01:28.645Z,100039.63
2023-03-31T21:04:00.965Z,100039.56
2023-03-31T21:06:36.495Z,100035.81
2023-03-31T21:09:05.399Z,100043.78
2023-03-31T21:11:33.062Z,100042.06
2023-03-31T21:14:01.137Z,100028.66
2023-03-31T21:16:28.506Z,100029.47
2023-03-31T21:18:56.100Z,100029.38
2023-03-31T21:21:25.052Z,100022.16
2023-03-31T21:23:52.469Z,100032.63
2023-03-31T21:26:20.577Z,100034.28
2023-03-31T21:28:51.879Z,100026.19
2023-03-31T21:31:19.343Z,100032.63
2023-03-31T21:33:47.583Z,100032.94
2023-03-31T21:36:17.927Z,100027.03
2023-03-31T21:38:45.860Z,100031.63
2023-03-31T21:41:19.242Z,100029.81
2023-03-31T21:43:47.225Z,100024.53
2023-03-31T21:46:19.311Z,100036.88
2023-03-31T21:48:48.208Z,100029.97
2023-03-31T21:51:16.175Z,100042.03
2023-03-31T21:53:43.425Z,100029.41
2023-03-31T21:56:10.583Z,100041.75
2023-03-31T21:58:37.755Z,100033.00
2023-03-31T22:01:06.369Z,100031.97
2023-03-31T22:03:34.727Z,100025.78
2023-03-31T22:06:04.575Z,100030.19
2023-03-31T22:08:31.908Z,100031.91
2023-03-31T22:11:00.584Z,100032.53
2023-03-31T22:13:28.633Z,100041.13
2023-03-31T22:15:56.632Z,100033.38
2023-03-31T22:18:23.915Z,100031.09
2023-03-31T22:20:51.327Z,100035.69
2023-03-31T22:23:20.733Z,100032.84
2023-03-31T22:25:48.215Z,100032.59
2023-03-31T22:28:17.105Z,100025.19
2023-03-31T22:30:44.790Z,100020.44
2023-03-31T22:33:12.167Z,100018.66
2023-03-31T22:35:39.725Z,100023.97
2023-03-31T22:38:08.653Z,100021.19
2023-03-31T22:40:36.443Z,100004.78
2023-03-31T22:43:04.086Z,100011.00
2023-03-31T22:45:31.638Z,100012.31
2023-03-31T22:47:59.044Z,100005.78
2023-03-31T22:50:27.436Z,100006.53
2023-03-31T22:52:54.804Z,100000.25
2023-03-31T22:55:22.136Z,99992.88
2023-03-31T22:57:49.378Z,100002.31
2023-03-31T23:00:17.219Z,99994.53
2023-03-31T23:02:44.325Z,99983.88
2023-03-31T23:05:11.739Z,99980.59
2023-03-31T23:07:38.932Z,99977.91
2023-03-31T23:10:07.128Z,99976.06
2023-03-31T23:12:34.318Z,99980.13
2023-03-31T23:15:01.713Z,99976.47
2023-03-31T23:17:29.281Z,99973.06
2023-03-31T23:19:56.358Z,99969.41
2023-03-31T23:22:25.541Z,99965.16
2023-03-31T23:24:52.705Z,99966.69
2023-03-31T23:27:20.612Z,99973.72
2023-03-31T23:29:48.170Z,99962.25
2023-03-31T23:32:15.736Z,99957.00
2023-03-31T23:34:43.617Z,99959.75
2023-03-31T23:37:12.810Z,99958.34
2023-03-31T23:39:40.157Z,99945.19
2023-03-31T23:42:08.483Z,99952.66
2023-03-31T23:44:39.037Z,99948.94
2023-03-31T23:47:06.610Z,99936.53
2023-03-31T23:49:33.840Z,99931.88
2023-03-31T23:52:01.094Z,99930.94
2023-03-31T23:54:28.976Z,99928.72
2023-03-31T23:56:56.435Z,99927.34
2023-03-31T23:59:23.567Z,99922.66
